sensor_id;sensor_type;location;lat;lon;timestamp;temperature;humidity
23385;DHT22;11865;45.394;10.978;2023-09-19T00:00:39;20.20;99.90
23385;DHT22;11865;45.394;10.978;2023-09-19T00:03:09;20.10;99.90
23385;DHT22;11865;45.394;10.978;2023-09-19T00:05:38;20.20;99.90
23385;DHT22;11865;45.394;10.978;2023-09-19T00:08:06;20.20;99.90
23385;DHT22;11865;45.394;10.978;2023-09-19T00:10:34;20.30;99.90
23385;DHT22;11865;45.394;10.978;2023-09-19T00:13:07;20.20;99.90
23385;DHT22;11865;45.394;10.978;2023-09-19T00:15:44;20.20;99.90
23385;DHT22;11865;45.394;10.978;2023-09-19T00:18:20;20.20;99.90
23385;DHT22;11865;45.394;10.978;2023-09-19T00:20:50;20.20;99.90
23385;DHT22;11865;45.394;10.978;2023-09-19T00:23:19;20.10;99.90
23385;DHT22;11865;45.394;10.978;2023-09-19T00:25:48;20.10;99.90
23385;DHT22;11865;45.394;10.978;2023-09-19T00:28:16;20.10;99.90
23385;DHT22;11865;45.394;10.978;2023-09-19T00:30:46;20.20;99.90
23385;DHT22;11865;45.394;10.978;2023-09-19T00:33:20;20.20;99.90
23385;DHT22;11865;45.394;10.978;2023-09-19T00:35:49;20.30;99.90
23385;DHT22;11865;45.394;10.978;2023-09-19T00:38:20;20.40;99.90
23385;DHT22;11865;45.394;10.978;2023-09-19T00:40:50;20.40;99.90
23385;DHT22;11865;45.394;10.978;2023-09-19T00:43:23;20.30;99.90
23385;DHT22;11865;45.394;10.978;2023-09-19T00:45:54;20.20;99.90
23385;DHT22;11865;45.394;10.978;2023-09-19T00:48:23;20.20;99.90
23385;DHT22;11865;45.394;10.978;2023-09-19T00:50:52;20.20;99.90
23385;DHT22;11865;45.394;10.978;2023-09-19T00:53:23;20.10;99.90
23385;DHT22;11865;45.394;10.978;2023-09-19T00:55:54;19.90;99.90
23385;DHT22;11865;45.394;10.978;2023-09-19T00:58:23;19.70;99.90
23385;DHT22;11865;45.394;10.978;2023-09-19T01:00:51;19.50;99.90
23385;DHT22;11865;45.394;10.978;2023-09-19T01:03:20;19.40;99.90
23385;DHT22;11865;45.394;10.978;2023-09-19T01:05:49;19.20;99.90
23385;DHT22;11865;45.394;10.978;2023-09-19T01:08:18;19.20;99.90
23385;DHT22;11865;45.394;10.978;2023-09-19T01:10:53;19.10;99.90
23385;DHT22;11865;45.394;10.978;2023-09-19T01:13:29;19.10;99.90
23385;DHT22;11865;45.394;10.978;2023-09-19T01:16:19;19.10;99.90
23385;DHT22;11865;45.394;10.978;2023-09-19T01:18:59;19.10;99.90
23385;DHT22;11865;45.394;10.978;2023-09-19T01:21:50;19.10;99.90
23385;DHT22;11865;45.394;10.978;2023-09-19T01:24:51;19.00;99.90
23385;DHT22;11865;45.394;10.978;2023-09-19T01:27:42;19.10;99.90
23385;DHT22;11865;45.394;10.978;2023-09-19T01:30:13;19.20;99.90
23385;DHT22;11865;45.394;10.978;2023-09-19T01:32:41;19.00;99.90
23385;DHT22;11865;45.394;10.978;2023-09-19T01:35:10;19.00;99.90
23385;DHT22;11865;45.394;10.978;2023-09-19T01:37:40;18.90;99.90
23385;DHT22;11865;45.394;10.978;2023-09-19T01:40:12;18.90;99.90
23385;DHT22;11865;45.394;10.978;2023-09-19T01:45:51;18.90;99.90
23385;DHT22;11865;45.394;10.978;2023-09-19T01:48:58;18.80;99.90
23385;DHT22;11865;45.394;10.978;2023-09-19T01:52:00;18.70;99.90
23385;DHT22;11865;45.394;10.978;2023-09-19T01:54:36;18.70;99.90
23385;DHT22;11865;45.394;10.978;2023-09-19T02:00:02;18.60;99.90
23385;DHT22;11865;45.394;10.978;2023-09-19T02:02:46;18.80;99.90
23385;DHT22;11865;45.394;10.978;2023-09-19T02:05:23;18.70;99.90
23385;DHT22;11865;45.394;10.978;2023-09-19T02:07:52;18.70;99.90
23385;DHT22;11865;45.394;10.978;2023-09-19T02:10:20;18.90;99.90
23385;DHT22;11865;45.394;10.978;2023-09-19T02:12:49;19.00;99.90
23385;DHT22;11865;45.394;10.978;2023-09-19T02:15:17;19.00;99.90
23385;DHT22;11865;45.394;10.978;2023-09-19T02:17:44;19.10;99.90
23385;DHT22;11865;45.394;10.978;2023-09-19T02:20:13;19.10;99.90
23385;DHT22;11865;45.394;10.978;2023-09-19T02:22:44;19.10;99.90
23385;DHT22;11865;45.394;10.978;2023-09-19T02:25:12;19.20;99.90
23385;DHT22;11865;45.394;10.978;2023-09-19T02:27:41;19.20;99.90
23385;DHT22;11865;45.394;10.978;2023-09-19T02:30:09;19.30;99.90
23385;DHT22;11865;45.394;10.978;2023-09-19T02:32:37;19.30;99.90
23385;DHT22;11865;45.394;10.978;2023-09-19T02:35:06;19.20;99.90
23385;DHT22;11865;45.394;10.978;2023-09-19T02:37:34;19.20;99.90
23385;DHT22;11865;45.394;10.978;2023-09-19T02:40:02;19.20;99.90
23385;DHT22;11865;45.394;10.978;2023-09-19T02:42:47;19.10;99.90
23385;DHT22;11865;45.394;10.978;2023-09-19T02:45:17;19.20;99.90
23385;DHT22;11865;45.394;10.978;2023-09-19T02:47:46;19.20;99.90
23385;DHT22;11865;45.394;10.978;2023-09-19T02:50:15;19.20;99.90
23385;DHT22;11865;45.394;10.978;2023-09-19T02:52:44;19.00;99.90
23385;DHT22;11865;45.394;10.978;2023-09-19T02:55:13;19.00;99.90
23385;DHT22;11865;45.394;10.978;2023-09-19T02:57:49;19.00;99.90
23385;DHT22;11865;45.394;10.978;2023-09-19T03:00:19;19.00;99.90
23385;DHT22;11865;45.394;10.978;2023-09-19T03:02:56;18.90;99.90
23385;DHT22;11865;45.394;10.978;2023-09-19T03:05:25;18.80;99.90
23385;DHT22;11865;45.394;10.978;2023-09-19T03:07:53;18.80;99.90
23385;DHT22;11865;45.394;10.978;2023-09-19T03:10:23;18.80;99.90
23385;DHT22;11865;45.394;10.978;2023-09-19T03:12:52;18.90;99.90
23385;DHT22;11865;45.394;10.978;2023-09-19T03:15:21;18.80;99.90
23385;DHT22;11865;45.394;10.978;2023-09-19T03:17:51;18.90;99.90
23385;DHT22;11865;45.394;10.978;2023-09-19T03:20:22;18.90;99.90
23385;DHT22;11865;45.394;10.978;2023-09-19T03:22:50;18.90;99.90
23385;DHT22;11865;45.394;10.978;2023-09-19T03:25:20;18.90;99.90
23385;DHT22;11865;45.394;10.978;2023-09-19T03:27:51;18.80;99.90
23385;DHT22;11865;45.394;10.978;2023-09-19T03:30:20;18.80;99.90
23385;DHT22;11865;45.394;10.978;2023-09-19T03:32:49;18.80;99.90
23385;DHT22;11865;45.394;10.978;2023-09-19T03:35:18;18.80;99.90
23385;DHT22;11865;45.394;10.978;2023-09-19T03:37:46;18.90;99.90
23385;DHT22;11865;45.394;10.978;2023-09-19T03:40:14;18.90;99.90
23385;DHT22;11865;45.394;10.978;2023-09-19T03:42:43;18.90;99.90
23385;DHT22;11865;45.394;10.978;2023-09-19T03:45:13;18.90;99.90
23385;DHT22;11865;45.394;10.978;2023-09-19T03:48:01;19.00;99.90
23385;DHT22;11865;45.394;10.978;2023-09-19T03:50:29;19.00;99.90
23385;DHT22;11865;45.394;10.978;2023-09-19T03:52:57;19.00;99.90
23385;DHT22;11865;45.394;10.978;2023-09-19T03:55:24;19.00;99.90
23385;DHT22;11865;45.394;10.978;2023-09-19T03:57:52;19.00;99.90
23385;DHT22;11865;45.394;10.978;2023-09-19T04:00:20;19.00;99.90
23385;DHT22;11865;45.394;10.978;2023-09-19T04:02:49;19.00;99.90
23385;DHT22;11865;45.394;10.978;2023-09-19T04:05:17;19.00;99.90
23385;DHT22;11865;45.394;10.978;2023-09-19T04:07:45;18.90;99.90
23385;DHT22;11865;45.394;10.978;2023-09-19T04:10:13;18.90;99.90
23385;DHT22;11865;45.394;10.978;2023-09-19T04:12:55;18.90;99.90
23385;DHT22;11865;45.394;10.978;2023-09-19T04:15:23;18.80;99.90
23385;DHT22;11865;45.394;10.978;2023-09-19T04:17:53;18.80;99.90
23385;DHT22;11865;45.394;10.978;2023-09-19T04:20:21;18.80;99.90
23385;DHT22;11865;45.394;10.978;2023-09-19T04:22:51;18.70;99.90
23385;DHT22;11865;45.394;10.978;2023-09-19T04:25:19;18.80;99.90
23385;DHT22;11865;45.394;10.978;2023-09-19T04:27:47;18.70;99.90
23385;DHT22;11865;45.394;10.978;2023-09-19T04:30:15;18.60;99.90
23385;DHT22;11865;45.394;10.978;2023-09-19T04:32:43;18.60;99.90
23385;DHT22;11865;45.394;10.978;2023-09-19T04:35:11;18.50;99.90
23385;DHT22;11865;45.394;10.978;2023-09-19T04:37:41;18.40;99.90
23385;DHT22;11865;45.394;10.978;2023-09-19T04:40:10;18.50;99.90
23385;DHT22;11865;45.394;10.978;2023-09-19T04:42:41;18.50;99.90
23385;DHT22;11865;45.394;10.978;2023-09-19T04:45:10;18.40;99.90
23385;DHT22;11865;45.394;10.978;2023-09-19T04:47:38;18.30;99.90
23385;DHT22;11865;45.394;10.978;2023-09-19T04:50:09;18.20;99.90
23385;DHT22;11865;45.394;10.978;2023-09-19T04:52:41;18.10;99.90
23385;DHT22;11865;45.394;10.978;2023-09-19T04:55:21;18.10;99.90
23385;DHT22;11865;45.394;10.978;2023-09-19T04:57:49;18.10;99.90
23385;DHT22;11865;45.394;10.978;2023-09-19T05:00:18;18.10;99.90
23385;DHT22;11865;45.394;10.978;2023-09-19T05:02:52;18.20;99.90
23385;DHT22;11865;45.394;10.978;2023-09-19T05:05:20;18.10;99.90
23385;DHT22;11865;45.394;10.978;2023-09-19T05:07:48;18.20;99.90
23385;DHT22;11865;45.394;10.978;2023-09-19T05:10:16;18.30;99.90
23385;DHT22;11865;45.394;10.978;2023-09-19T05:12:46;18.40;99.90
23385;DHT22;11865;45.394;10.978;2023-09-19T05:15:15;18.60;99.90
23385;DHT22;11865;45.394;10.978;2023-09-19T05:17:51;18.50;99.90
23385;DHT22;11865;45.394;10.978;2023-09-19T05:20:25;18.50;99.90
23385;DHT22;11865;45.394;10.978;2023-09-19T05:23:05;18.50;99.90
23385;DHT22;11865;45.394;10.978;2023-09-19T05:25:37;18.50;99.90
23385;DHT22;11865;45.394;10.978;2023-09-19T05:28:08;18.50;99.90
23385;DHT22;11865;45.394;10.978;2023-09-19T05:30:36;18.50;99.90
23385;DHT22;11865;45.394;10.978;2023-09-19T05:33:04;18.60;99.90
23385;DHT22;11865;45.394;10.978;2023-09-19T05:35:32;18.80;99.90
23385;DHT22;11865;45.394;10.978;2023-09-19T05:38:00;18.90;99.90
23385;DHT22;11865;45.394;10.978;2023-09-19T05:40:27;19.00;99.90
23385;DHT22;11865;45.394;10.978;2023-09-19T05:42:55;19.10;99.90
23385;DHT22;11865;45.394;10.978;2023-09-19T05:45:23;19.20;99.90
23385;DHT22;11865;45.394;10.978;2023-09-19T05:47:51;19.40;99.90
23385;DHT22;11865;45.394;10.978;2023-09-19T05:50:23;19.50;99.90
23385;DHT22;11865;45.394;10.978;2023-09-19T05:52:52;19.50;99.90
23385;DHT22;11865;45.394;10.978;2023-09-19T05:55:20;19.50;99.90
23385;DHT22;11865;45.394;10.978;2023-09-19T05:57:52;19.70;99.90
23385;DHT22;11865;45.394;10.978;2023-09-19T06:00:23;19.90;99.90
23385;DHT22;11865;45.394;10.978;2023-09-19T06:02:52;20.40;99.90
23385;DHT22;11865;45.394;10.978;2023-09-19T06:05:21;21.70;99.90
23385;DHT22;11865;45.394;10.978;2023-09-19T06:07:49;22.50;99.90
23385;DHT22;11865;45.394;10.978;2023-09-19T06:10:18;22.90;99.90
23385;DHT22;11865;45.394;10.978;2023-09-19T06:12:48;23.70;99.90
23385;DHT22;11865;45.394;10.978;2023-09-19T06:15:16;24.20;99.90
23385;DHT22;11865;45.394;10.978;2023-09-19T06:17:50;24.70;99.90
23385;DHT22;11865;45.394;10.978;2023-09-19T06:20:18;25.40;98.50
23385;DHT22;11865;45.394;10.978;2023-09-19T06:22:47;25.70;98.30
23385;DHT22;11865;45.394;10.978;2023-09-19T06:25:16;26.00;97.80
23385;DHT22;11865;45.394;10.978;2023-09-19T06:27:53;26.10;97.10
23385;DHT22;11865;45.394;10.978;2023-09-19T06:30:23;25.80;97.10
23385;DHT22;11865;45.394;10.978;2023-09-19T06:32:57;25.90;97.00
23385;DHT22;11865;45.394;10.978;2023-09-19T06:35:25;26.30;96.50
23385;DHT22;11865;45.394;10.978;2023-09-19T06:37:54;26.80;96.50
23385;DHT22;11865;45.394;10.978;2023-09-19T06:40:21;26.70;96.20
23385;DHT22;11865;45.394;10.978;2023-09-19T06:42:51;26.60;96.40
23385;DHT22;11865;45.394;10.978;2023-09-19T06:45:20;27.40;95.90
23385;DHT22;11865;45.394;10.978;2023-09-19T06:47:50;26.60;96.90
23385;DHT22;11865;45.394;10.978;2023-09-19T06:50:22;26.90;97.10
23385;DHT22;11865;45.394;10.978;2023-09-19T06:52:54;26.80;95.90
23385;DHT22;11865;45.394;10.978;2023-09-19T06:55:24;26.70;95.50
23385;DHT22;11865;45.394;10.978;2023-09-19T06:57:52;25.70;96.50
23385;DHT22;11865;45.394;10.978;2023-09-19T07:00:21;27.00;96.70
23385;DHT22;11865;45.394;10.978;2023-09-19T07:03:06;27.40;95.50
23385;DHT22;11865;45.394;10.978;2023-09-19T07:05:36;27.90;93.60
23385;DHT22;11865;45.394;10.978;2023-09-19T07:08:08;27.40;93.30
23385;DHT22;11865;45.394;10.978;2023-09-19T07:10:39;26.30;94.40
23385;DHT22;11865;45.394;10.978;2023-09-19T07:13:16;25.70;96.40
23385;DHT22;11865;45.394;10.978;2023-09-19T07:15:46;26.10;96.50
23385;DHT22;11865;45.394;10.978;2023-09-19T07:18:15;27.10;94.90
23385;DHT22;11865;45.394;10.978;2023-09-19T07:20:45;25.80;95.70
23385;DHT22;11865;45.394;10.978;2023-09-19T07:23:19;25.60;96.10
23385;DHT22;11865;45.394;10.978;2023-09-19T07:25:49;24.90;97.30
23385;DHT22;11865;45.394;10.978;2023-09-19T07:28:18;24.70;98.00
23385;DHT22;11865;45.394;10.978;2023-09-19T07:30:45;24.50;98.70
23385;DHT22;11865;45.394;10.978;2023-09-19T07:33:13;24.80;98.30
23385;DHT22;11865;45.394;10.978;2023-09-19T07:35:45;24.60;98.10
23385;DHT22;11865;45.394;10.978;2023-09-19T07:38:13;24.60;98.00
23385;DHT22;11865;45.394;10.978;2023-09-19T07:40:41;24.70;98.40
23385;DHT22;11865;45.394;10.978;2023-09-19T07:43:08;24.80;97.10
23385;DHT22;11865;45.394;10.978;2023-09-19T07:45:36;24.80;97.70
23385;DHT22;11865;45.394;10.978;2023-09-19T07:48:04;24.70;96.50
23385;DHT22;11865;45.394;10.978;2023-09-19T07:50:34;24.80;96.60
23385;DHT22;11865;45.394;10.978;2023-09-19T07:53:05;24.70;97.10
23385;DHT22;11865;45.394;10.978;2023-09-19T07:55:32;24.80;96.60
23385;DHT22;11865;45.394;10.978;2023-09-19T07:58:01;24.70;97.30
23385;DHT22;11865;45.394;10.978;2023-09-19T08:00:31;24.70;96.30
23385;DHT22;11865;45.394;10.978;2023-09-19T08:03:02;24.70;96.60
23385;DHT22;11865;45.394;10.978;2023-09-19T08:05:44;24.60;96.40
23385;DHT22;11865;45.394;10.978;2023-09-19T08:08:12;24.60;96.80
23385;DHT22;11865;45.394;10.978;2023-09-19T08:10:42;24.70;96.30
23385;DHT22;11865;45.394;10.978;2023-09-19T08:13:13;24.80;95.90
23385;DHT22;11865;45.394;10.978;2023-09-19T08:15:45;24.80;95.60
23385;DHT22;11865;45.394;10.978;2023-09-19T08:18:15;24.90;95.70
23385;DHT22;11865;45.394;10.978;2023-09-19T08:20:48;25.00;95.60
23385;DHT22;11865;45.394;10.978;2023-09-19T08:23:16;24.90;95.80
23385;DHT22;11865;45.394;10.978;2023-09-19T08:25:47;24.90;96.50
23385;DHT22;11865;45.394;10.978;2023-09-19T08:28:15;25.00;95.70
23385;DHT22;11865;45.394;10.978;2023-09-19T08:30:46;25.00;95.90
23385;DHT22;11865;45.394;10.978;2023-09-19T08:33:14;25.20;95.80
23385;DHT22;11865;45.394;10.978;2023-09-19T08:35:42;25.10;95.60
23385;DHT22;11865;45.394;10.978;2023-09-19T08:38:10;25.20;95.50
23385;DHT22;11865;45.394;10.978;2023-09-19T08:40:39;25.20;95.20
23385;DHT22;11865;45.394;10.978;2023-09-19T08:43:11;25.20;95.00
23385;DHT22;11865;45.394;10.978;2023-09-19T08:45:38;25.20;95.30
23385;DHT22;11865;45.394;10.978;2023-09-19T08:51:03;25.20;95.20
23385;DHT22;11865;45.394;10.978;2023-09-19T08:53:51;25.30;95.00
23385;DHT22;11865;45.394;10.978;2023-09-19T08:56:22;25.30;94.70
23385;DHT22;11865;45.394;10.978;2023-09-19T08:58:54;25.30;94.70
23385;DHT22;11865;45.394;10.978;2023-09-19T09:01:27;25.30;95.10
23385;DHT22;11865;45.394;10.978;2023-09-19T09:03:56;25.30;94.50
23385;DHT22;11865;45.394;10.978;2023-09-19T09:06:25;25.50;94.60
23385;DHT22;11865;45.394;10.978;2023-09-19T09:08:53;25.40;94.10
23385;DHT22;11865;45.394;10.978;2023-09-19T09:11:21;25.30;94.10
23385;DHT22;11865;45.394;10.978;2023-09-19T09:13:52;25.30;94.50
23385;DHT22;11865;45.394;10.978;2023-09-19T09:16:19;25.40;94.20
23385;DHT22;11865;45.394;10.978;2023-09-19T09:18:49;25.20;94.80
23385;DHT22;11865;45.394;10.978;2023-09-19T09:21:22;25.30;94.40
23385;DHT22;11865;45.394;10.978;2023-09-19T09:23:52;25.10;94.30
23385;DHT22;11865;45.394;10.978;2023-09-19T09:26:41;25.40;94.90
23385;DHT22;11865;45.394;10.978;2023-09-19T09:29:12;25.50;93.70
23385;DHT22;11865;45.394;10.978;2023-09-19T09:31:46;25.40;94.40
23385;DHT22;11865;45.394;10.978;2023-09-19T09:34:13;25.50;94.80
23385;DHT22;11865;45.394;10.978;2023-09-19T09:36:41;25.70;93.90
23385;DHT22;11865;45.394;10.978;2023-09-19T09:39:09;25.80;94.40
23385;DHT22;11865;45.394;10.978;2023-09-19T09:41:43;25.90;94.20
23385;DHT22;11865;45.394;10.978;2023-09-19T09:44:16;26.00;93.20
23385;DHT22;11865;45.394;10.978;2023-09-19T09:46:46;25.80;94.10
23385;DHT22;11865;45.394;10.978;2023-09-19T09:49:24;26.00;94.50
23385;DHT22;11865;45.394;10.978;2023-09-19T09:52:07;25.90;93.50
23385;DHT22;11865;45.394;10.978;2023-09-19T09:55:01;26.00;94.00
23385;DHT22;11865;45.394;10.978;2023-09-19T09:57:33;26.10;93.70
23385;DHT22;11865;45.394;10.978;2023-09-19T10:00:02;26.20;93.30
23385;DHT22;11865;45.394;10.978;2023-09-19T10:02:43;26.20;94.00
23385;DHT22;11865;45.394;10.978;2023-09-19T10:05:16;26.10;93.40
23385;DHT22;11865;45.394;10.978;2023-09-19T10:07:56;26.10;93.40
23385;DHT22;11865;45.394;10.978;2023-09-19T10:10:37;26.10;94.10
23385;DHT22;11865;45.394;10.978;2023-09-19T10:13:14;26.20;93.40
23385;DHT22;11865;45.394;10.978;2023-09-19T10:15:50;26.10;93.10
23385;DHT22;11865;45.394;10.978;2023-09-19T10:18:26;26.10;93.00
23385;DHT22;11865;45.394;10.978;2023-09-19T10:20:56;26.10;92.80
23385;DHT22;11865;45.394;10.978;2023-09-19T10:23:26;26.10;93.00
23385;DHT22;11865;45.394;10.978;2023-09-19T10:25:57;26.20;93.40
23385;DHT22;11865;45.394;10.978;2023-09-19T10:28:28;26.20;93.30
23385;DHT22;11865;45.394;10.978;2023-09-19T10:30:57;26.20;92.30
23385;DHT22;11865;45.394;10.978;2023-09-19T10:33:25;26.20;92.50
23385;DHT22;11865;45.394;10.978;2023-09-19T10:35:54;26.20;93.00
23385;DHT22;11865;45.394;10.978;2023-09-19T10:38:24;26.10;92.90
23385;DHT22;11865;45.394;10.978;2023-09-19T10:40:57;26.20;92.40
23385;DHT22;11865;45.394;10.978;2023-09-19T10:43:33;26.20;92.40
23385;DHT22;11865;45.394;10.978;2023-09-19T10:46:07;26.20;92.70
23385;DHT22;11865;45.394;10.978;2023-09-19T10:48:37;26.10;92.90
23385;DHT22;11865;45.394;10.978;2023-09-19T10:51:09;26.00;91.60
23385;DHT22;11865;45.394;10.978;2023-09-19T10:53:54;26.10;91.80
23385;DHT22;11865;45.394;10.978;2023-09-19T10:56:32;26.00;91.40
23385;DHT22;11865;45.394;10.978;2023-09-19T10:59:08;26.10;92.80
23385;DHT22;11865;45.394;10.978;2023-09-19T11:01:49;26.20;91.90
23385;DHT22;11865;45.394;10.978;2023-09-19T11:07:06;26.40;92.40
23385;DHT22;11865;45.394;10.978;2023-09-19T11:15:08;26.20;91.20
23385;DHT22;11865;45.394;10.978;2023-09-19T11:17:39;26.30;91.30
23385;DHT22;11865;45.394;10.978;2023-09-19T11:30:41;26.30;90.40
23385;DHT22;11865;45.394;10.978;2023-09-19T11:33:28;26.40;90.30
23385;DHT22;11865;45.394;10.978;2023-09-19T11:36:16;26.50;90.00
23385;DHT22;11865;45.394;10.978;2023-09-19T11:49:19;26.40;90.70
23385;DHT22;11865;45.394;10.978;2023-09-19T11:51:51;26.60;89.40
23385;DHT22;11865;45.394;10.978;2023-09-19T11:54:19;26.60;90.80
23385;DHT22;11865;45.394;10.978;2023-09-19T11:56:51;26.70;90.30
23385;DHT22;11865;45.394;10.978;2023-09-19T11:59:22;26.70;89.20
23385;DHT22;11865;45.394;10.978;2023-09-19T12:01:51;26.70;89.60
23385;DHT22;11865;45.394;10.978;2023-09-19T12:04:39;26.70;90.50
23385;DHT22;11865;45.394;10.978;2023-09-19T12:07:12;26.70;91.40
23385;DHT22;11865;45.394;10.978;2023-09-19T12:09:49;26.90;91.50
23385;DHT22;11865;45.394;10.978;2023-09-19T12:12:23;27.00;91.20
23385;DHT22;11865;45.394;10.978;2023-09-19T12:14:51;27.10;91.00
23385;DHT22;11865;45.394;10.978;2023-09-19T12:17:18;27.10;90.70
23385;DHT22;11865;45.394;10.978;2023-09-19T12:19:56;27.00;90.70
23385;DHT22;11865;45.394;10.978;2023-09-19T12:22:24;27.10;91.90
23385;DHT22;11865;45.394;10.978;2023-09-19T12:24:52;27.20;88.70
23385;DHT22;11865;45.394;10.978;2023-09-19T12:27:22;27.20;90.50
23385;DHT22;11865;45.394;10.978;2023-09-19T12:29:50;27.10;90.40
23385;DHT22;11865;45.394;10.978;2023-09-19T12:32:37;27.10;90.60
23385;DHT22;11865;45.394;10.978;2023-09-19T12:35:08;27.20;91.20
23385;DHT22;11865;45.394;10.978;2023-09-19T12:37:43;27.30;90.40
23385;DHT22;11865;45.394;10.978;2023-09-19T12:40:16;27.30;90.30
23385;DHT22;11865;45.394;10.978;2023-09-19T12:42:45;27.60;90.70
23385;DHT22;11865;45.394;10.978;2023-09-19T12:45:17;27.40;90.40
23385;DHT22;11865;45.394;10.978;2023-09-19T12:48:23;27.40;86.90
23385;DHT22;11865;45.394;10.978;2023-09-19T12:51:09;27.40;89.70
23385;DHT22;11865;45.394;10.978;2023-09-19T12:53:44;27.40;88.70
23385;DHT22;11865;45.394;10.978;2023-09-19T12:56:18;27.50;89.70
23385;DHT22;11865;45.394;10.978;2023-09-19T12:58:56;27.70;89.40
23385;DHT22;11865;45.394;10.978;2023-09-19T13:01:28;27.70;87.20
23385;DHT22;11865;45.394;10.978;2023-09-19T13:04:16;27.90;86.80
23385;DHT22;11865;45.394;10.978;2023-09-19T13:06:49;27.70;85.30
23385;DHT22;11865;45.394;10.978;2023-09-19T13:09:19;27.70;86.30
23385;DHT22;11865;45.394;10.978;2023-09-19T13:11:48;27.70;86.30
23385;DHT22;11865;45.394;10.978;2023-09-19T13:14:21;27.80;87.30
23385;DHT22;11865;45.394;10.978;2023-09-19T13:17:06;28.00;87.20
23385;DHT22;11865;45.394;10.978;2023-09-19T13:22:39;28.00;86.00
23385;DHT22;11865;45.394;10.978;2023-09-19T13:25:11;28.10;84.50
23385;DHT22;11865;45.394;10.978;2023-09-19T13:27:43;28.10;85.10
23385;DHT22;11865;45.394;10.978;2023-09-19T13:30:12;28.00;83.90
23385;DHT22;11865;45.394;10.978;2023-09-19T13:32:42;27.90;83.40
23385;DHT22;11865;45.394;10.978;2023-09-19T13:35:11;27.80;84.30
23385;DHT22;11865;45.394;10.978;2023-09-19T13:37:41;27.80;84.20
23385;DHT22;11865;45.394;10.978;2023-09-19T13:40:14;27.90;84.80
23385;DHT22;11865;45.394;10.978;2023-09-19T13:42:42;28.10;83.80
23385;DHT22;11865;45.394;10.978;2023-09-19T13:45:10;28.10;83.80
23385;DHT22;11865;45.394;10.978;2023-09-19T13:47:40;28.00;81.70
23385;DHT22;11865;45.394;10.978;2023-09-19T13:50:09;28.00;82.50
23385;DHT22;11865;45.394;10.978;2023-09-19T13:52:36;27.90;82.60
23385;DHT22;11865;45.394;10.978;2023-09-19T13:55:06;27.90;83.60
23385;DHT22;11865;45.394;10.978;2023-09-19T13:57:34;27.80;84.60
23385;DHT22;11865;45.394;10.978;2023-09-19T14:00:02;27.90;80.60
23385;DHT22;11865;45.394;10.978;2023-09-19T14:02:38;27.90;81.00
23385;DHT22;11865;45.394;10.978;2023-09-19T14:05:07;27.90;82.00
23385;DHT22;11865;45.394;10.978;2023-09-19T14:07:34;28.10;80.20
23385;DHT22;11865;45.394;10.978;2023-09-19T14:10:03;27.90;81.80
23385;DHT22;11865;45.394;10.978;2023-09-19T14:12:31;27.80;83.80
23385;DHT22;11865;45.394;10.978;2023-09-19T14:14:59;27.80;82.20
23385;DHT22;11865;45.394;10.978;2023-09-19T14:17:27;27.90;82.00
23385;DHT22;11865;45.394;10.978;2023-09-19T14:19:55;27.90;81.90
23385;DHT22;11865;45.394;10.978;2023-09-19T14:22:23;27.70;81.50
23385;DHT22;11865;45.394;10.978;2023-09-19T14:24:50;27.70;82.20
23385;DHT22;11865;45.394;10.978;2023-09-19T14:27:19;27.60;82.70
23385;DHT22;11865;45.394;10.978;2023-09-19T14:29:46;27.60;83.40
23385;DHT22;11865;45.394;10.978;2023-09-19T14:32:14;27.60;84.10
23385;DHT22;11865;45.394;10.978;2023-09-19T14:34:42;27.70;80.40
23385;DHT22;11865;45.394;10.978;2023-09-19T14:37:10;27.70;77.20
23385;DHT22;11865;45.394;10.978;2023-09-19T14:39:41;27.80;77.00
23385;DHT22;11865;45.394;10.978;2023-09-19T14:42:12;27.60;79.90
23385;DHT22;11865;45.394;10.978;2023-09-19T14:44:42;27.60;79.70
23385;DHT22;11865;45.394;10.978;2023-09-19T14:47:09;27.60;80.60
23385;DHT22;11865;45.394;10.978;2023-09-19T14:49:40;27.60;79.00
23385;DHT22;11865;45.394;10.978;2023-09-19T14:52:11;27.60;80.30
23385;DHT22;11865;45.394;10.978;2023-09-19T14:54:40;27.70;80.50
23385;DHT22;11865;45.394;10.978;2023-09-19T14:57:09;27.70;79.40
23385;DHT22;11865;45.394;10.978;2023-09-19T14:59:37;27.80;75.70
23385;DHT22;11865;45.394;10.978;2023-09-19T15:02:05;27.70;79.00
23385;DHT22;11865;45.394;10.978;2023-09-19T15:04:33;27.60;81.20
23385;DHT22;11865;45.394;10.978;2023-09-19T15:07:01;27.60;78.70
23385;DHT22;11865;45.394;10.978;2023-09-19T15:09:30;27.50;79.10
23385;DHT22;11865;45.394;10.978;2023-09-19T15:11:59;27.60;79.50
23385;DHT22;11865;45.394;10.978;2023-09-19T15:14:27;27.60;79.50
23385;DHT22;11865;45.394;10.978;2023-09-19T15:16:56;27.60;78.20
23385;DHT22;11865;45.394;10.978;2023-09-19T15:19:24;27.60;78.10
23385;DHT22;11865;45.394;10.978;2023-09-19T15:21:52;27.60;77.40
23385;DHT22;11865;45.394;10.978;2023-09-19T15:24:19;27.60;77.60
23385;DHT22;11865;45.394;10.978;2023-09-19T15:26:47;27.60;77.80
23385;DHT22;11865;45.394;10.978;2023-09-19T15:29:15;27.50;77.20
23385;DHT22;11865;45.394;10.978;2023-09-19T15:31:43;27.60;75.80
23385;DHT22;11865;45.394;10.978;2023-09-19T15:34:11;27.60;76.50
23385;DHT22;11865;45.394;10.978;2023-09-19T15:36:41;27.50;78.30
23385;DHT22;11865;45.394;10.978;2023-09-19T15:39:09;27.50;76.70
23385;DHT22;11865;45.394;10.978;2023-09-19T15:41:45;27.50;77.70
23385;DHT22;11865;45.394;10.978;2023-09-19T15:44:16;27.40;76.80
23385;DHT22;11865;45.394;10.978;2023-09-19T15:46:44;27.40;74.30
23385;DHT22;11865;45.394;10.978;2023-09-19T15:49:12;27.30;77.50
23385;DHT22;11865;45.394;10.978;2023-09-19T15:51:40;27.40;77.50
23385;DHT22;11865;45.394;10.978;2023-09-19T15:54:10;27.30;77.40
23385;DHT22;11865;45.394;10.978;2023-09-19T15:56:38;27.30;76.70
23385;DHT22;11865;45.394;10.978;2023-09-19T15:59:08;27.20;77.20
23385;DHT22;11865;45.394;10.978;2023-09-19T16:01:37;27.20;77.50
23385;DHT22;11865;45.394;10.978;2023-09-19T16:04:06;27.10;78.20
23385;DHT22;11865;45.394;10.978;2023-09-19T16:06:36;27.10;76.80
23385;DHT22;11865;45.394;10.978;2023-09-19T16:09:05;27.00;78.70
23385;DHT22;11865;45.394;10.978;2023-09-19T16:11:34;27.00;79.70
23385;DHT22;11865;45.394;10.978;2023-09-19T16:14:05;26.90;78.40
23385;DHT22;11865;45.394;10.978;2023-09-19T16:16:37;26.80;79.90
23385;DHT22;11865;45.394;10.978;2023-09-19T16:19:05;26.70;81.30
23385;DHT22;11865;45.394;10.978;2023-09-19T16:21:38;26.70;81.40